createdAt,value
2019-05-11T00:00:52.974Z,22.25
2019-05-11T00:03:26.017Z,23.60
2019-05-11T00:06:05.564Z,21.90
2019-05-11T00:08:35.668Z,23.30
2019-05-11T00:11:17.520Z,24.60
2019-05-11T00:13:58.022Z,24.95
2019-05-11T00:19:27.629Z,22.50
2019-05-11T00:21:59.520Z,21.20
2019-05-11T00:24:31.557Z,22.93
2019-05-11T00:27:03.268Z,23.15
2019-05-11T00:29:43.001Z,22.20
2019-05-11T00:35:13.862Z,19.85
2019-05-11T00:37:45.901Z,24.40
2019-05-11T00:40:17.760Z,23.18
2019-05-11T00:42:49.684Z,30.95
2019-05-11T00:45:21.711Z,21.75
2019-05-11T00:47:53.279Z,21.50
2019-05-11T00:50:38.153Z,20.75
2019-05-11T00:52:58.150Z,25.65
2019-05-11T00:55:29.598Z,28.17
2019-05-11T00:58:01.059Z,21.68
2019-05-11T01:00:33.261Z,19.98
2019-05-11T01:03:05.024Z,22.77
2019-05-11T01:05:37.224Z,20.92
2019-05-11T01:08:09.446Z,22.52
2019-05-11T01:10:42.640Z,21.07
2019-05-11T01:13:14.796Z,22.00
2019-05-11T01:15:46.579Z,32.23
2019-05-11T01:18:21.441Z,27.13
2019-05-11T01:20:51.776Z,23.67
2019-05-11T01:23:23.707Z,22.17
2019-05-11T01:25:55.996Z,20.50
2019-05-11T01:28:28.079Z,18.90
2019-05-11T01:31:00.260Z,20.55
2019-05-11T01:33:32.284Z,20.85
2019-05-11T01:36:04.054Z,22.05
2019-05-11T01:38:35.806Z,22.13
2019-05-11T01:41:08.067Z,19.10
2019-05-11T01:43:41.219Z,22.10
2019-05-11T01:46:14.336Z,18.75
2019-05-11T01:48:47.980Z,17.92
2019-05-11T01:51:19.201Z,20.35
2019-05-11T01:53:55.175Z,21.37
2019-05-11T01:56:26.468Z,18.32
2019-05-11T01:58:57.408Z,20.55
2019-05-11T02:01:29.436Z,26.02
2019-05-11T02:04:05.588Z,19.87
2019-05-11T02:06:48.074Z,21.95
2019-05-11T02:09:19.688Z,16.82
2019-05-11T02:11:52.016Z,21.25
2019-05-11T02:17:28.019Z,17.45
2019-05-11T02:20:06.941Z,21.15
2019-05-11T02:22:45.469Z,21.50
2019-05-11T02:25:18.707Z,23.32
2019-05-11T02:27:50.526Z,21.45
2019-05-11T02:30:25.567Z,19.87
2019-05-11T02:32:57.511Z,17.57
2019-05-11T02:35:29.643Z,19.67
2019-05-11T02:38:03.854Z,22.17
2019-05-11T02:40:45.739Z,19.55
2019-05-11T02:43:20.035Z,21.97
2019-05-11T02:45:55.988Z,20.15
2019-05-11T02:48:25.419Z,21.37
2019-05-11T02:50:59.156Z,18.92
2019-05-11T02:53:32.658Z,17.77
2019-05-11T02:56:05.892Z,21.07
2019-05-11T02:58:37.967Z,23.47
2019-05-11T03:01:17.669Z,20.55
2019-05-11T03:04:01.429Z,18.67
2019-05-11T03:06:51.957Z,22.93
2019-05-11T03:09:15.410Z,17.82
2019-05-11T03:12:09.416Z,21.65
2019-05-11T03:14:42.771Z,20.43
2019-05-11T03:17:18.364Z,20.35
2019-05-11T03:19:49.831Z,18.02
2019-05-11T03:22:28.607Z,21.85
2019-05-11T03:24:59.825Z,23.00
2019-05-11T03:27:31.814Z,22.13
2019-05-11T03:30:03.878Z,19.05
2019-05-11T03:32:36.538Z,21.93
2019-05-11T03:35:08.830Z,22.20
2019-05-11T03:37:42.490Z,23.10
2019-05-11T03:40:14.518Z,25.32
2019-05-11T03:42:48.827Z,21.75
2019-05-11T03:45:23.260Z,24.82
2019-05-11T03:47:54.949Z,24.23
2019-05-11T03:50:28.006Z,20.92
2019-05-11T03:52:59.851Z,26.77
2019-05-11T03:56:36.487Z,26.25
2019-05-11T03:58:08.353Z,22.48
2019-05-11T04:00:43.026Z,27.07
2019-05-11T04:03:14.738Z,24.20
2019-05-11T04:05:56.068Z,21.23
2019-05-11T04:08:27.822Z,25.80
2019-05-11T04:11:07.166Z,20.48
2019-05-11T04:13:32.642Z,28.57
2019-05-11T04:16:04.583Z,21.33
2019-05-11T04:18:50.528Z,26.02
2019-05-11T04:22:49.074Z,22.05
2019-05-11T04:24:06.853Z,23.70
2019-05-11T04:26:40.054Z,25.62
2019-05-11T04:29:13.402Z,20.48
2019-05-11T04:31:46.468Z,21.93
2019-05-11T04:34:18.107Z,23.18
2019-05-11T04:37:14.884Z,23.35
2019-05-11T04:39:46.654Z,21.48
2019-05-11T04:42:18.414Z,21.65
2019-05-11T04:44:52.396Z,25.20
2019-05-11T04:47:23.171Z,26.30
2019-05-11T04:49:54.753Z,22.80
2019-05-11T04:52:26.197Z,31.07
2019-05-11T04:54:57.580Z,21.70
2019-05-11T04:57:28.846Z,23.07
2019-05-11T05:00:00.465Z,26.65
2019-05-11T05:02:32.411Z,22.93
2019-05-11T05:05:04.358Z,22.45
2019-05-11T05:07:35.850Z,26.33
2019-05-11T05:10:09.178Z,24.92
2019-05-11T05:12:40.690Z,22.80
2019-05-11T05:15:12.763Z,23.05
2019-05-11T05:17:44.504Z,22.32
2019-05-11T05:20:17.980Z,24.35
2019-05-11T05:22:49.503Z,22.65
2019-05-11T05:25:22.850Z,21.70
2019-05-11T05:27:55.007Z,24.85
2019-05-11T05:30:27.151Z,20.92
2019-05-11T05:32:59.352Z,21.87
2019-05-11T05:35:31.275Z,21.48
2019-05-11T05:38:03.158Z,23.50
2019-05-11T05:40:36.013Z,22.25
2019-05-11T05:43:08.076Z,21.15
2019-05-11T05:45:44.711Z,26.93
2019-05-11T05:48:16.908Z,21.77
2019-05-11T05:50:49.074Z,20.45
2019-05-11T05:53:20.819Z,19.57
2019-05-11T05:55:52.324Z,22.77
2019-05-11T05:58:23.833Z,21.85
2019-05-11T06:00:55.546Z,23.00
2019-05-11T06:03:28.129Z,24.63
2019-05-11T06:06:00.136Z,22.20
2019-05-11T06:08:34.694Z,22.35
2019-05-11T06:15:23.347Z,25.35
2019-05-11T06:24:06.761Z,20.77
2019-05-11T06:26:53.342Z,19.07
2019-05-11T06:29:31.993Z,21.23
2019-05-11T06:32:04.453Z,21.75
2019-05-11T06:34:36.695Z,17.40
2019-05-11T06:37:09.795Z,20.75
2019-05-11T06:39:43.397Z,18.82
2019-05-11T06:42:18.311Z,23.27
2019-05-11T06:44:49.975Z,19.42
2019-05-11T06:47:21.484Z,23.18
2019-05-11T06:49:54.658Z,19.82
2019-05-11T06:52:26.629Z,17.90
2019-05-11T06:54:58.752Z,20.48
2019-05-11T06:57:34.336Z,17.35
2019-05-11T07:00:17.500Z,18.70
2019-05-11T07:02:52.019Z,17.95
2019-05-11T07:05:27.563Z,19.05
2019-05-11T07:08:02.696Z,21.93
2019-05-11T07:10:34.431Z,16.93
2019-05-11T07:13:09.053Z,21.42
2019-05-11T07:15:40.363Z,17.98
2019-05-11T07:18:19.150Z,17.92
2019-05-11T07:20:50.551Z,22.48
2019-05-11T07:23:18.024Z,22.90
2019-05-11T07:25:49.569Z,20.12
2019-05-11T07:28:21.564Z,16.62
2019-05-11T07:30:59.731Z,20.88
2019-05-11T07:33:34.227Z,17.07
2019-05-11T07:36:08.260Z,17.75
2019-05-11T07:38:39.926Z,22.77
2019-05-11T07:41:11.460Z,18.65
2019-05-11T07:43:45.727Z,18.27
2019-05-11T07:46:19.947Z,23.50
2019-05-11T07:48:54.815Z,22.52
2019-05-11T07:51:28.536Z,20.32
2019-05-11T07:54:09.502Z,20.70
2019-05-11T07:56:42.477Z,19.85
2019-05-11T07:59:14.292Z,22.22
2019-05-11T08:01:47.937Z,17.82
2019-05-11T08:04:22.435Z,20.88
2019-05-11T08:06:55.781Z,21.23
2019-05-11T08:09:28.875Z,24.20
2019-05-11T08:12:04.755Z,20.65
2019-05-11T08:14:55.863Z,25.27
2019-05-11T08:20:09.947Z,21.82
2019-05-11T08:22:43.506Z,22.42
2019-05-11T08:25:19.422Z,19.77
2019-05-11T08:27:54.489Z,23.20
2019-05-11T08:30:31.544Z,20.90
2019-05-11T08:33:02.867Z,21.97
2019-05-11T08:35:38.980Z,19.17
2019-05-11T08:38:11.536Z,23.98
2019-05-11T08:40:43.643Z,21.85
2019-05-11T08:43:33.454Z,21.60
2019-05-11T08:46:05.290Z,20.57
2019-05-11T08:48:38.801Z,20.08
2019-05-11T08:51:13.141Z,20.75
2019-05-11T08:53:44.721Z,19.92
2019-05-11T08:56:21.923Z,21.68
2019-05-11T08:58:59.453Z,21.62
2019-05-11T09:01:28.448Z,18.00
2019-05-11T09:04:05.597Z,20.85
2019-05-11T09:06:41.035Z,21.35
2019-05-11T09:09:13.292Z,22.25
2019-05-11T09:11:48.233Z,18.55
2019-05-11T09:14:22.908Z,24.70
2019-05-11T09:16:57.587Z,39.92
2019-05-11T09:19:36.017Z,33.15
2019-05-11T09:22:08.418Z,19.57
2019-05-11T09:24:43.526Z,21.87
2019-05-11T09:27:14.942Z,20.82
2019-05-11T09:29:50.641Z,20.20
2019-05-11T09:32:23.947Z,22.13
2019-05-11T09:34:58.066Z,21.52
2019-05-11T09:37:29.734Z,18.98
2019-05-11T09:40:01.685Z,17.77
2019-05-11T09:42:35.920Z,17.73
2019-05-11T09:45:08.285Z,17.10
2019-05-11T09:47:40.399Z,18.73
2019-05-11T09:50:29.775Z,23.85
2019-05-11T09:52:57.494Z,19.60
2019-05-11T09:55:28.535Z,21.48
2019-05-11T09:58:08.346Z,21.68
2019-05-11T10:00:41.728Z,23.87
2019-05-11T10:03:14.860Z,21.95
2019-05-11T10:06:08.324Z,17.85
2019-05-11T10:08:48.580Z,21.15
2019-05-11T10:11:19.238Z,19.57
2019-05-11T10:13:52.712Z,19.12
2019-05-11T10:16:27.906Z,19.48
2019-05-11T10:19:00.169Z,22.87
2019-05-11T10:21:34.484Z,22.90
2019-05-11T10:24:09.893Z,25.55
2019-05-11T10:26:41.728Z,20.43
2019-05-11T10:29:14.733Z,28.83
2019-05-11T10:31:48.665Z,25.88
2019-05-11T10:34:19.846Z,21.70
2019-05-11T10:36:54.426Z,20.82
2019-05-11T10:39:27.913Z,21.20
2019-05-11T10:42:02.579Z,22.52
2019-05-11T10:44:38.517Z,25.05
2019-05-11T10:47:08.874Z,23.27
2019-05-11T10:49:40.642Z,19.42
2019-05-11T10:52:12.350Z,20.88
2019-05-11T10:54:44.182Z,20.23
2019-05-11T10:57:18.897Z,20.95
2019-05-11T10:59:51.975Z,21.15
2019-05-11T11:02:54.818Z,20.10
2019-05-11T11:08:08.322Z,25.37
2019-05-11T11:13:51.501Z,22.50
2019-05-11T11:16:36.750Z,22.22
2019-05-11T11:19:03.307Z,26.02
2019-05-11T11:21:39.178Z,23.25
2019-05-11T11:24:10.584Z,26.10
2019-05-11T11:26:42.281Z,24.20
2019-05-11T11:29:14.180Z,21.10
2019-05-11T11:31:48.129Z,20.32
2019-05-11T11:34:23.053Z,22.35
2019-05-11T11:36:53.415Z,22.07
2019-05-11T11:39:30.548Z,24.00
2019-05-11T11:42:02.545Z,27.75
2019-05-11T11:44:34.213Z,21.55
2019-05-11T11:47:09.321Z,27.40
2019-05-11T11:49:40.673Z,30.62
2019-05-11T11:52:12.691Z,27.40
2019-05-11T11:54:47.953Z,24.20
2019-05-11T11:57:20.363Z,27.85
2019-05-11T12:02:53.099Z,29.10
2019-05-11T12:05:17.800Z,28.25
2019-05-11T12:07:50.040Z,27.42
2019-05-11T12:10:25.128Z,26.50
2019-05-11T12:13:01.122Z,29.02
2019-05-11T12:15:38.854Z,35.33
2019-05-11T12:18:11.107Z,29.23
2019-05-11T12:20:42.570Z,26.60
2019-05-11T12:23:18.232Z,26.62
2019-05-11T12:25:52.537Z,24.75
2019-05-11T12:28:27.500Z,23.85
2019-05-11T12:30:59.158Z,25.55
2019-05-11T12:33:30.351Z,24.92
2019-05-11T12:36:07.937Z,25.12
2019-05-11T12:38:38.707Z,23.38
2019-05-11T12:41:10.013Z,23.47
2019-05-11T12:43:41.340Z,23.18
2019-05-11T12:46:13.119Z,24.25
2019-05-11T12:48:45.200Z,23.75
2019-05-11T12:51:18.588Z,27.58
2019-05-11T12:53:49.755Z,30.20
2019-05-11T12:56:21.649Z,25.52
2019-05-11T13:01:48.616Z,23.20
2019-05-11T13:04:20.292Z,25.52
2019-05-11T13:06:52.278Z,24.75
2019-05-11T13:09:23.870Z,28.07
2019-05-11T13:11:55.437Z,26.45
2019-05-11T13:14:28.432Z,22.55
2019-05-11T13:17:02.613Z,27.65
2019-05-11T13:19:34.272Z,24.63
2019-05-11T13:22:09.258Z,25.57
2019-05-11T13:24:44.255Z,28.65
2019-05-11T13:27:20.177Z,24.15
2019-05-11T13:29:51.772Z,25.87
2019-05-11T13:32:28.229Z,27.02
2019-05-11T13:35:03.122Z,25.88
2019-05-11T13:37:34.640Z,24.47
2019-05-11T13:40:11.562Z,24.70
2019-05-11T13:42:43.638Z,26.07
2019-05-11T13:45:24.310Z,28.83
2019-05-11T13:47:59.246Z,23.95
2019-05-11T13:50:30.942Z,27.95
2019-05-11T13:53:07.858Z,25.70
2019-05-11T13:56:10.510Z,27.93
2019-05-11T13:59:07.544Z,27.17
2019-05-11T14:10:49.025Z,28.32
2019-05-11T14:13:20.635Z,33.00
2019-05-11T14:16:05.317Z,24.87
2019-05-11T14:18:44.327Z,26.93
2019-05-11T14:21:10.582Z,29.23
2019-05-11T14:25:00.904Z,31.95
2019-05-11T14:26:19.445Z,27.05
2019-05-11T14:29:15.030Z,26.73
2019-05-11T14:34:48.343Z,29.55
2019-05-11T14:37:37.804Z,29.20
2019-05-11T14:40:13.003Z,26.97
2019-05-11T14:45:10.746Z,28.83
2019-05-11T14:45:54.019Z,27.20
2019-05-11T14:48:49.973Z,26.90
2019-05-11T14:52:18.983Z,25.97
2019-05-11T14:54:30.638Z,26.15
2019-05-11T15:00:14.932Z,27.52
2019-05-11T15:07:38.424Z,27.13
2019-05-11T15:08:40.869Z,25.10
2019-05-11T15:14:48.912Z,23.95
2019-05-11T15:23:02.909Z,27.17
2019-05-11T15:25:54.861Z,24.60
2019-05-11T15:28:22.500Z,31.17
2019-05-11T15:31:00.643Z,33.10
2019-05-11T15:33:35.071Z,28.40
2019-05-11T15:36:15.191Z,30.57
2019-05-11T15:39:15.401Z,29.52
2019-05-11T15:41:51.115Z,32.53
2019-05-11T15:44:28.439Z,29.18
2019-05-11T15:49:51.580Z,29.52
2019-05-11T15:52:26.201Z,28.07
2019-05-11T15:55:45.092Z,26.10
2019-05-11T15:58:19.075Z,24.23
2019-05-11T16:00:52.778Z,26.68
2019-05-11T16:03:25.347Z,30.30
2019-05-11T16:06:03.629Z,31.17
2019-05-11T16:08:32.569Z,27.35
2019-05-11T16:11:09.356Z,27.55
2019-05-11T16:13:43.898Z,29.63
2019-05-11T16:16:15.837Z,29.80
2019-05-11T16:18:48.383Z,30.88
2019-05-11T16:21:21.046Z,33.23
2019-05-11T16:23:52.670Z,30.80
2019-05-11T16:26:24.017Z,27.20
2019-05-11T16:29:00.406Z,29.07
2019-05-11T16:31:32.804Z,37.10
2019-05-11T16:34:04.876Z,29.65
2019-05-11T16:36:38.696Z,32.23
2019-05-11T16:39:10.483Z,29.25
2019-05-11T16:41:43.322Z,31.75
2019-05-11T16:44:15.139Z,31.02
2019-05-11T16:46:50.444Z,31.60
2019-05-11T16:49:28.506Z,32.58
2019-05-11T16:51:53.022Z,30.75
2019-05-11T16:54:24.609Z,33.25
2019-05-11T16:56:57.926Z,34.83
2019-05-11T16:59:30.038Z,32.53
2019-05-11T17:02:02.099Z,34.70
2019-05-11T17:04:34.048Z,30.20
2019-05-11T17:07:08.190Z,29.05
2019-05-11T17:09:39.407Z,35.05
2019-05-11T17:12:11.337Z,34.18
2019-05-11T17:14:44.531Z,31.05
2019-05-11T17:17:18.351Z,30.15
2019-05-11T17:19:49.579Z,37.13
2019-05-11T17:22:21.665Z,32.05
2019-05-11T17:24:54.837Z,39.13
2019-05-11T17:27:28.522Z,36.23
2019-05-11T17:30:00.236Z,36.08
2019-05-11T17:32:31.529Z,37.00
2019-05-11T17:35:02.907Z,34.35
2019-05-11T17:37:34.318Z,36.13
2019-05-11T17:40:09.024Z,38.20
2019-05-11T17:42:40.599Z,42.00
2019-05-11T17:45:12.615Z,35.63
2019-05-11T17:48:24.639Z,37.80
2019-05-11T17:50:23.403Z,36.50
2019-05-11T17:52:54.737Z,35.05
2019-05-11T17:55:28.824Z,36.25
2019-05-11T17:58:00.303Z,39.83
2019-05-11T18:00:32.202Z,38.30
2019-05-11T18:03:08.351Z,37.40
2019-05-11T18:05:37.977Z,37.20
2019-05-11T18:08:10.332Z,38.60
2019-05-11T18:10:42.510Z,37.55
2019-05-11T18:13:16.976Z,35.65
2019-05-11T18:15:49.353Z,36.93
2019-05-11T18:18:23.974Z,35.48
2019-05-11T18:20:57.682Z,38.00
2019-05-11T18:23:29.036Z,37.20
2019-05-11T18:26:01.616Z,37.08
2019-05-11T18:28:33.635Z,39.03
2019-05-11T18:31:05.978Z,41.70
2019-05-11T18:33:38.135Z,31.12
2019-05-11T18:36:10.104Z,34.50
2019-05-11T18:38:41.941Z,29.82
2019-05-11T18:41:14.057Z,29.80
2019-05-11T18:43:48.388Z,27.45
2019-05-11T18:46:20.553Z,28.80
2019-05-11T18:48:52.075Z,30.50
2019-05-11T18:51:23.344Z,25.48
2019-05-11T18:53:54.623Z,23.98
2019-05-11T18:56:28.594Z,24.52
2019-05-11T18:58:58.957Z,23.45
2019-05-11T19:01:31.502Z,23.98
2019-05-11T19:04:03.557Z,25.30
2019-05-11T19:06:37.660Z,22.55
2019-05-11T19:09:09.706Z,21.77
2019-05-11T19:11:42.734Z,24.47
2019-05-11T19:14:14.275Z,19.70
2019-05-11T19:16:45.538Z,20.80
2019-05-11T19:19:18.259Z,21.55
2019-05-11T19:21:49.893Z,18.45
2019-05-11T19:24:21.980Z,20.62
2019-05-11T19:26:53.791Z,20.12
2019-05-11T19:29:25.761Z,17.67
2019-05-11T19:31:58.039Z,19.42
2019-05-11T19:34:29.747Z,20.62
2019-05-11T19:37:01.677Z,19.57
2019-05-11T19:39:33.866Z,19.92
2019-05-11T19:42:07.677Z,16.50
2019-05-11T19:44:39.158Z,19.25
2019-05-11T19:47:11.049Z,18.67
2019-05-11T19:49:42.546Z,16.93
2019-05-11T19:52:14.264Z,18.60
2019-05-11T19:54:48.777Z,19.32
2019-05-11T19:57:20.250Z,19.50
2019-05-11T19:59:52.319Z,18.12
2019-05-11T20:02:24.328Z,17.00
2019-05-11T20:04:58.425Z,19.62
2019-05-11T20:07:31.896Z,25.20
2019-05-11T20:10:01.500Z,17.95
2019-05-11T20:12:33.401Z,22.07
2019-05-11T20:15:08.082Z,19.90
2019-05-11T20:17:39.244Z,19.23
2019-05-11T20:20:15.177Z,18.23
2019-05-11T20:22:48.172Z,22.13
2019-05-11T20:25:19.466Z,18.12
2019-05-11T20:27:51.026Z,20.10
2019-05-11T20:30:22.746Z,20.60
2019-05-11T20:32:54.663Z,18.42
2019-05-11T20:35:28.023Z,16.52
2019-05-11T20:37:59.409Z,20.55
2019-05-11T20:40:31.461Z,20.43
2019-05-11T20:43:02.838Z,19.67
2019-05-11T20:45:34.760Z,22.05
2019-05-11T20:48:07.909Z,23.98
2019-05-11T20:50:40.083Z,20.62
2019-05-11T20:53:12.091Z,20.92
2019-05-11T20:55:44.075Z,22.27
2019-05-11T20:58:18.497Z,21.75
2019-05-11T21:00:49.232Z,23.38
2019-05-11T21:03:21.535Z,19.85
2019-05-11T21:05:54.809Z,19.35
2019-05-11T21:08:28.343Z,20.82
2019-05-11T21:10:59.392Z,17.35
2019-05-11T21:13:31.241Z,22.75
2019-05-11T21:16:03.130Z,18.90
2019-05-11T21:18:34.796Z,21.23
2019-05-11T21:21:06.750Z,20.72
2019-05-11T21:23:40.666Z,23.87
2019-05-11T21:26:11.620Z,23.25
2019-05-11T21:28:43.506Z,20.95
2019-05-11T21:31:15.276Z,19.75
2019-05-11T21:33:46.213Z,18.85
2019-05-11T21:36:18.157Z,17.90
2019-05-11T21:38:50.201Z,21.48
2019-05-11T21:41:21.835Z,16.65
2019-05-11T21:43:55.186Z,18.32
2019-05-11T21:46:28.383Z,20.05
2019-05-11T21:49:00.246Z,20.20
2019-05-11T21:51:32.148Z,22.22
2019-05-11T21:54:03.628Z,20.12
2019-05-11T21:56:34.867Z,21.00
2019-05-11T21:59:07.808Z,19.57
2019-05-11T22:01:38.900Z,19.15
2019-05-11T22:04:11.263Z,19.65
2019-05-11T22:06:43.379Z,20.62
2019-05-11T22:09:18.391Z,22.82
2019-05-11T22:11:49.139Z,19.15
2019-05-11T22:14:20.627Z,20.00
2019-05-11T22:16:52.717Z,21.37
2019-05-11T22:19:24.867Z,25.15
2019-05-11T22:21:58.273Z,23.25
2019-05-11T22:24:30.127Z,20.95
2019-05-11T22:27:02.174Z,24.70
2019-05-11T22:29:34.056Z,18.27
2019-05-11T22:32:05.801Z,20.37
2019-05-11T22:34:37.959Z,18.55
2019-05-11T22:37:10.252Z,21.07
2019-05-11T22:39:42.299Z,21.55
2019-05-11T22:42:14.513Z,24.07
2019-05-11T22:44:48.351Z,24.30
2019-05-11T22:47:19.706Z,27.07
2019-05-11T22:49:50.911Z,23.90
2019-05-11T22:52:33.015Z,19.32
2019-05-11T22:54:59.042Z,34.53
2019-05-11T22:57:30.854Z,35.52
2019-05-11T23:00:02.919Z,32.50
2019-05-11T23:02:34.953Z,33.73
2019-05-11T23:05:08.651Z,37.28
2019-05-11T23:07:41.413Z,26.10
2019-05-11T23:10:13.542Z,26.68
2019-05-11T23:12:45.118Z,23.87
2019-05-11T23:15:17.308Z,23.27
2019-05-11T23:17:48.977Z,32.58
2019-05-11T23:23:28.237Z,28.77
2019-05-11T23:25:57.906Z,29.98
2019-05-11T23:28:30.418Z,35.52
2019-05-11T23:31:02.461Z,45.08
2019-05-11T23:33:34.404Z,31.27
2019-05-11T23:36:07.835Z,29.57
2019-05-11T23:38:53.601Z,23.85
2019-05-11T23:41:24.726Z,25.57
2019-05-11T23:43:58.361Z,25.92
2019-05-11T23:46:33.229Z,25.92
2019-05-11T23:49:04.003Z,26.73
2019-05-11T23:51:35.764Z,24.35
2019-05-11T23:54:15.793Z,24.45
2019-05-11T23:56:49.849Z,22.70
2019-05-11T23:59:24.346Z,22.95
